createdAt,value
2023-03-08T02:50:44.512Z,0.17
2023-03-08T02:51:42.771Z,0.28
2023-03-08T02:52:42.683Z,0.15
2023-03-08T02:53:42.722Z,0.24
2023-03-08T02:54:42.698Z,0.28
2023-03-08T02:55:42.641Z,0.31
2023-03-08T02:56:42.643Z,0.24
2023-03-08T02:57:42.637Z,0.13
2023-03-08T02:58:42.652Z,0.29
2023-03-08T02:59:42.611Z,0.32
2023-03-08T03:00:42.584Z,0.18
2023-03-08T03:01:42.659Z,0.26
2023-03-08T03:02:42.566Z,0.28
2023-03-08T03:03:42.572Z,0.24
2023-03-08T03:04:42.563Z,0.24
2023-03-08T03:05:42.589Z,0.24
2023-03-08T03:06:42.590Z,0.23
2023-03-08T03:07:42.507Z,0.21
2023-03-08T03:08:42.498Z,0.26
2023-03-08T03:09:42.481Z,0.24
2023-03-08T03:10:42.477Z,0.29
2023-03-08T03:11:42.487Z,0.28
2023-03-08T03:12:42.454Z,0.28
2023-03-08T03:13:42.435Z,0.26
2023-03-08T03:14:42.451Z,0.24
2023-03-08T03:15:42.477Z,0.26
2023-03-08T03:16:42.408Z,0.28
2023-03-08T03:17:42.421Z,0.26
2023-03-08T03:18:42.394Z,0.28
2023-03-08T03:19:42.370Z,0.32
2023-03-08T03:20:42.360Z,0.20
2023-03-08T03:21:42.373Z,0.23
2023-03-08T03:22:42.360Z,0.31
2023-03-08T03:23:42.349Z,0.33
2023-03-08T03:24:42.315Z,0.31
2023-03-08T03:25:42.300Z,0.28
2023-03-08T03:26:42.321Z,0.32
2023-03-08T03:27:42.272Z,0.28
2023-03-08T03:28:42.271Z,0.23
2023-03-08T03:29:42.284Z,0.28
2023-03-08T03:30:42.244Z,0.28
2023-03-08T03:31:42.228Z,0.24
2023-03-08T03:32:42.312Z,0.24
2023-03-08T03:33:42.235Z,0.29
2023-03-08T03:34:42.198Z,0.33
2023-03-08T03:35:42.202Z,0.26
2023-03-08T03:36:42.179Z,0.26
2023-03-08T03:37:42.179Z,0.32
2023-03-08T03:38:42.169Z,0.24
2023-03-08T03:39:42.142Z,0.26
2023-03-08T03:40:42.137Z,0.32
2023-03-08T03:41:42.145Z,0.29
2023-03-08T03:42:42.134Z,0.29
2023-03-08T03:43:42.090Z,0.28
2023-03-08T03:44:42.093Z,0.18
2023-03-08T03:45:42.104Z,0.31
2023-03-08T03:46:42.103Z,0.35
2023-03-08T03:47:42.079Z,0.33
2023-03-08T03:48:42.051Z,0.29
2023-03-08T03:49:42.024Z,0.31
2023-03-08T03:50:42.023Z,0.28
2023-03-08T03:51:42.003Z,0.29
2023-03-08T03:52:42.029Z,0.29
2023-03-08T03:53:41.992Z,0.24
2023-03-08T03:54:42.005Z,0.28
2023-03-08T03:55:41.960Z,0.35
2023-03-08T03:56:41.996Z,0.29
2023-03-08T03:57:41.941Z,0.26
2023-03-08T03:58:41.933Z,0.35
2023-03-08T03:59:41.954Z,0.41
2023-03-08T04:00:41.913Z,0.32
2023-03-08T04:01:41.908Z,0.31
2023-03-08T04:02:41.908Z,0.23
2023-03-08T04:03:41.978Z,0.24
2023-03-08T04:04:41.877Z,0.26
2023-03-08T04:05:41.865Z,0.28
2023-03-08T04:06:41.851Z,0.31
2023-03-08T04:07:41.847Z,0.35
2023-03-08T04:08:41.845Z,0.32
2023-03-08T04:09:41.812Z,0.31
2023-03-08T04:10:41.815Z,0.32
2023-03-08T04:11:41.793Z,0.31
2023-03-08T04:12:41.780Z,0.35
2023-03-08T04:13:41.785Z,0.42
2023-03-08T04:14:41.776Z,0.32
2023-03-08T04:15:41.797Z,0.41
2023-03-08T04:16:41.736Z,0.32
2023-03-08T04:17:41.760Z,0.28
2023-03-08T04:18:41.708Z,0.32
2023-03-08T04:19:41.698Z,0.35
2023-03-08T04:20:41.717Z,0.35
2023-03-08T04:21:41.692Z,0.36
2023-03-08T04:22:41.686Z,0.35
2023-03-08T04:23:41.662Z,0.38
2023-03-08T04:24:41.641Z,0.33
2023-03-08T04:25:41.646Z,0.39
2023-03-08T04:26:41.644Z,0.36
2023-03-08T04:27:41.606Z,0.35
2023-03-08T04:28:41.601Z,0.41
2023-03-08T04:29:41.588Z,0.42
2023-03-08T04:30:41.594Z,0.46
2023-03-08T04:31:41.634Z,0.33
2023-03-08T04:32:41.589Z,0.36
2023-03-08T04:33:41.534Z,0.47
2023-03-08T04:34:41.557Z,0.38
2023-03-08T04:35:41.574Z,0.39
2023-03-08T04:36:41.513Z,0.41
2023-03-08T04:37:41.489Z,0.41
2023-03-08T04:38:41.481Z,0.39
2023-03-08T04:39:41.490Z,0.39
2023-03-08T04:40:41.458Z,0.46
2023-03-08T04:41:41.453Z,0.31
2023-03-08T04:42:41.458Z,0.29
2023-03-08T04:43:41.424Z,0.32
2023-03-08T04:44:41.437Z,0.32
2023-03-08T04:45:41.424Z,0.31
2023-03-08T04:46:41.578Z,0.29
2023-03-08T04:47:41.394Z,0.39
2023-03-08T04:48:41.394Z,0.29
2023-03-08T04:49:41.353Z,0.31
2023-03-08T04:50:41.340Z,0.26
2023-03-08T04:51:41.339Z,0.31
2023-03-08T04:52:41.320Z,0.24
2023-03-08T04:53:41.326Z,0.28
2023-03-08T04:54:41.337Z,0.29
2023-03-08T04:55:41.291Z,0.32
2023-03-08T04:56:41.275Z,0.31
2023-03-08T04:57:41.273Z,0.33
2023-03-08T04:58:41.369Z,0.28
2023-03-08T04:59:41.278Z,0.29
2023-03-08T05:00:41.254Z,0.32
2023-03-08T05:01:41.225Z,0.32
2023-03-08T05:02:41.227Z,0.42
2023-03-08T05:03:41.233Z,0.35
2023-03-08T05:04:41.238Z,0.33
2023-03-08T05:05:41.197Z,0.38
2023-03-08T05:06:41.161Z,0.38
2023-03-08T05:07:41.170Z,0.41
2023-03-08T05:08:41.165Z,0.38
2023-03-08T05:09:42.906Z,0.41
2023-03-08T05:10:41.126Z,0.32
2023-03-08T05:11:41.123Z,0.42
2023-03-08T05:12:41.096Z,0.32
2023-03-08T05:13:41.094Z,0.31
2023-03-08T05:14:41.112Z,0.38
2023-03-08T05:15:41.118Z,0.39
2023-03-08T05:16:41.134Z,0.35
2023-03-08T05:17:41.054Z,0.32
2023-03-08T05:18:41.038Z,0.41
2023-03-08T05:19:41.048Z,0.46
2023-03-08T05:20:41.009Z,0.44
2023-03-08T05:21:40.996Z,0.35
2023-03-08T05:22:57.671Z,0.42
2023-03-08T05:23:41.988Z,0.41
2023-03-08T05:24:40.983Z,0.39
2023-03-08T05:25:41.025Z,0.47
2023-03-08T05:26:40.939Z,0.42
2023-03-08T05:27:40.931Z,0.44
2023-03-08T05:28:40.915Z,0.35
2023-03-08T05:29:40.943Z,0.39
2023-03-08T05:30:40.990Z,0.47
2023-03-08T05:31:40.946Z,0.44
2023-03-08T05:32:40.890Z,0.36
2023-03-08T05:33:40.881Z,0.41
2023-03-08T05:34:40.847Z,0.38
2023-03-08T05:35:40.895Z,0.38
2023-03-08T05:36:40.819Z,0.44
2023-03-08T05:37:40.816Z,0.44
2023-03-08T05:38:40.895Z,0.38
2023-03-08T05:39:40.822Z,0.41
2023-03-08T05:40:40.777Z,0.44
2023-03-08T05:41:40.779Z,0.41
2023-03-08T05:42:40.800Z,0.42
2023-03-08T05:43:40.748Z,0.46
2023-03-08T05:44:40.793Z,0.44
2023-03-08T05:45:40.858Z,0.42
2023-03-08T05:46:40.789Z,0.47
2023-03-08T05:47:40.715Z,0.51
2023-03-08T05:48:40.681Z,0.46
2023-03-08T05:49:40.681Z,0.50
2023-03-08T05:50:40.663Z,0.51
2023-03-08T05:51:40.683Z,0.51
2023-03-08T05:52:40.639Z,0.50
2023-03-08T05:53:40.660Z,0.50
2023-03-08T05:54:40.618Z,0.49
2023-03-08T05:55:40.614Z,0.49
2023-03-08T05:56:40.607Z,0.51
2023-03-08T05:57:40.610Z,0.51
2023-03-08T05:58:43.102Z,0.50
2023-03-08T05:59:40.584Z,0.57
2023-03-08T06:00:40.567Z,0.53
2023-03-08T06:01:40.544Z,0.44
2023-03-08T06:02:40.541Z,0.58
2023-03-08T06:03:40.578Z,0.46
2023-03-08T06:04:40.506Z,0.46
2023-03-08T06:05:40.550Z,0.50
2023-03-08T06:06:40.507Z,0.50
2023-03-08T06:07:40.476Z,0.50
2023-03-08T06:08:40.456Z,0.50
2023-03-08T06:09:40.451Z,0.46
2023-03-08T06:10:40.454Z,0.50
2023-03-08T06:11:40.435Z,0.46
2023-03-08T06:12:40.410Z,0.50
2023-03-08T06:13:40.411Z,0.47
2023-03-08T06:14:40.391Z,0.51
2023-03-08T06:15:40.410Z,0.46
2023-03-08T06:16:40.457Z,0.60
2023-03-08T06:17:40.357Z,0.55
2023-03-08T06:18:40.363Z,0.66
2023-03-08T06:19:40.354Z,0.57
2023-03-08T06:20:40.318Z,0.65
2023-03-08T06:21:40.312Z,0.72
2023-03-08T06:22:40.309Z,0.66
2023-03-08T06:23:40.969Z,0.72
2023-03-08T06:24:40.294Z,0.75
2023-03-08T06:25:40.267Z,0.78
2023-03-08T06:26:40.256Z,0.75
2023-03-08T06:27:40.246Z,0.70
2023-03-08T06:28:40.247Z,0.75
2023-03-08T06:29:40.247Z,0.70
2023-03-08T06:30:40.254Z,0.73
2023-03-08T06:31:40.205Z,0.76
2023-03-08T06:32:40.227Z,0.73
2023-03-08T06:33:40.183Z,0.80
2023-03-08T06:34:40.187Z,0.87
2023-03-08T06:35:40.193Z,0.84
2023-03-08T06:36:40.143Z,0.83
2023-03-08T06:37:40.141Z,0.94
2023-03-08T06:38:40.189Z,0.87
2023-03-08T06:39:40.142Z,0.93
2023-03-08T06:40:40.219Z,0.96
2023-03-08T06:41:40.109Z,1.04
2023-03-08T06:42:41.908Z,1.04
2023-03-08T06:43:40.109Z,1.06
2023-03-08T06:44:40.174Z,1.12
2023-03-08T06:45:40.165Z,1.09
2023-03-08T06:46:40.084Z,1.16
2023-03-08T06:47:40.051Z,1.09
2023-03-08T06:48:40.019Z,1.18
2023-03-08T06:49:40.008Z,1.24
2023-03-08T06:50:40.048Z,1.23
2023-03-08T06:51:40.003Z,1.27
2023-03-08T06:52:39.980Z,1.23
2023-03-08T06:53:39.988Z,1.23
2023-03-08T06:54:39.942Z,1.18
2023-03-08T06:55:39.988Z,1.29
2023-03-08T06:56:39.919Z,1.26
2023-03-08T06:57:39.919Z,1.33
2023-03-08T06:58:39.910Z,1.45
2023-03-08T06:59:39.919Z,1.42
2023-03-08T07:00:39.880Z,1.44
2023-03-08T07:01:39.943Z,1.47
2023-03-08T07:02:39.848Z,1.58
2023-03-08T07:03:39.867Z,1.47
2023-03-08T07:04:39.937Z,1.44
2023-03-08T07:05:39.822Z,1.51
2023-03-08T07:06:39.823Z,1.55
2023-03-08T07:07:39.802Z,1.58
2023-03-08T07:08:39.843Z,1.68
2023-03-08T07:09:39.780Z,1.66
2023-03-08T07:10:39.832Z,1.68
2023-03-08T07:11:39.782Z,1.72
2023-03-08T07:12:39.736Z,1.68
2023-03-08T07:13:39.736Z,1.72
2023-03-08T07:14:39.714Z,1.79
2023-03-08T07:15:39.772Z,1.80
2023-03-08T07:16:39.702Z,1.87
2023-03-08T07:17:39.686Z,1.80
2023-03-08T07:18:39.672Z,1.88
2023-03-08T07:19:39.672Z,1.87
2023-03-08T07:20:39.675Z,2.05
2023-03-08T07:21:39.641Z,2.09
2023-03-08T07:22:39.708Z,2.07
2023-03-08T07:23:39.642Z,2.06
2023-03-08T07:24:39.644Z,2.17
2023-03-08T07:25:39.621Z,2.06
2023-03-08T07:26:39.591Z,2.06
2023-03-08T07:27:39.588Z,2.06
2023-03-08T07:28:39.563Z,2.17
2023-03-08T07:29:39.544Z,2.25
2023-03-08T07:30:39.532Z,2.27
2023-03-08T07:31:39.537Z,2.30
2023-03-08T07:32:39.625Z,2.39
2023-03-08T07:33:39.501Z,2.43
2023-03-08T07:34:39.514Z,2.38
2023-03-08T07:35:40.156Z,2.41
2023-03-08T07:36:39.459Z,2.52
2023-03-08T07:37:39.474Z,2.46
2023-03-08T07:38:39.487Z,2.48
2023-03-08T07:39:39.455Z,2.53
2023-03-08T07:40:39.433Z,2.48
2023-03-08T07:41:39.411Z,2.53
2023-03-08T07:42:39.402Z,2.48
2023-03-08T07:43:39.390Z,2.63
2023-03-08T07:44:39.393Z,2.46
2023-03-08T07:45:39.382Z,2.39
2023-03-08T07:46:39.428Z,2.45
2023-03-08T07:47:39.333Z,2.57
2023-03-08T07:48:39.354Z,2.66
2023-03-08T07:49:39.342Z,2.71
2023-03-08T07:50:39.314Z,2.63
2023-03-08T07:51:39.307Z,2.45
2023-03-08T07:52:39.288Z,2.45
2023-03-08T07:53:39.272Z,2.38
2023-03-08T07:54:39.326Z,2.38
2023-03-08T07:55:39.246Z,2.46
2023-03-08T07:56:39.243Z,2.46
2023-03-08T07:57:39.267Z,2.57
2023-03-08T07:58:39.220Z,2.48
2023-03-08T07:59:39.211Z,2.42
2023-03-08T08:00:39.200Z,2.52
2023-03-08T08:01:39.226Z,2.54
2023-03-08T08:02:39.169Z,2.49
2023-03-08T08:03:39.321Z,2.52
2023-03-08T08:04:39.155Z,2.52
2023-03-08T08:05:39.242Z,2.52
2023-03-08T08:06:39.149Z,2.56
2023-03-08T08:07:39.138Z,2.56
2023-03-08T08:08:39.107Z,2.46
2023-03-08T08:09:39.102Z,2.42
2023-03-08T08:10:39.100Z,2.54
2023-03-08T08:11:39.088Z,2.56
2023-03-08T08:12:39.059Z,2.64
2023-03-08T08:13:39.066Z,2.79
2023-03-08T08:14:39.050Z,2.84
2023-03-08T08:15:39.033Z,2.85
2023-03-08T08:16:39.098Z,2.87
2023-03-08T08:17:38.996Z,2.89
2023-03-08T08:18:39.016Z,3.10
2023-03-08T08:19:38.976Z,3.14
2023-03-08T08:20:38.968Z,3.18
2023-03-08T08:21:38.982Z,3.35
2023-03-08T08:22:38.951Z,3.23
2023-03-08T08:23:38.928Z,3.05
2023-03-08T08:24:38.933Z,3.05
2023-03-08T08:25:38.906Z,3.13
2023-03-08T08:26:38.992Z,3.24
2023-03-08T08:27:38.890Z,3.29
2023-03-08T08:28:38.896Z,3.36
2023-03-08T08:29:38.867Z,3.55
2023-03-08T08:30:38.854Z,3.57
2023-03-08T08:31:38.881Z,3.66
2023-03-08T08:32:38.953Z,3.78
2023-03-08T08:33:38.992Z,3.86
2023-03-08T08:34:38.811Z,3.90
2023-03-08T08:35:43.330Z,4.02
2023-03-08T08:36:38.786Z,4.02
2023-03-08T08:37:38.790Z,4.09
2023-03-08T08:38:38.759Z,4.15
2023-03-08T08:39:38.783Z,4.18
2023-03-08T08:40:38.741Z,4.26
2023-03-08T08:41:38.727Z,4.33
2023-03-08T08:42:38.825Z,4.32
2023-03-08T08:43:38.703Z,4.29
2023-03-08T08:44:38.718Z,4.30
2023-03-08T08:45:38.727Z,4.20
2023-03-08T08:46:38.702Z,4.29
2023-03-08T08:47:38.658Z,4.26
2023-03-08T08:48:38.651Z,4.34
2023-03-08T08:49:38.633Z,4.32
2023-03-08T08:50:38.653Z,4.36
2023-03-08T08:51:38.622Z,4.37
2023-03-08T08:52:38.689Z,4.45
2023-03-08T08:53:38.589Z,4.33
2023-03-08T08:54:38.598Z,4.33
2023-03-08T08:55:41.222Z,4.27
2023-03-08T08:56:38.554Z,4.30
2023-03-08T08:57:38.559Z,4.18
2023-03-08T08:58:38.642Z,4.30
2023-03-08T08:59:38.682Z,4.36
2023-03-08T09:00:38.594Z,4.36
2023-03-08T09:01:38.813Z,4.45
2023-03-08T09:02:38.533Z,4.45
2023-03-08T09:03:38.539Z,4.37
2023-03-08T09:04:38.717Z,4.50
2023-03-08T09:05:38.450Z,4.45
2023-03-08T09:06:38.446Z,4.45
2023-03-08T09:07:39.356Z,4.44
2023-03-08T09:08:38.424Z,4.42
2023-03-08T09:09:38.433Z,4.41
2023-03-08T09:10:38.407Z,4.47
2023-03-08T09:11:53.403Z,4.44
2023-03-08T09:12:39.406Z,4.50
2023-03-08T09:13:38.358Z,4.52
2023-03-08T09:14:38.430Z,4.50
2023-03-08T09:15:45.607Z,4.45
2023-03-08T09:16:38.581Z,4.45
2023-03-08T09:17:38.356Z,4.42
2023-03-08T09:18:38.308Z,4.48
2023-03-08T09:19:38.348Z,4.51
2023-03-08T09:20:38.294Z,4.42
2023-03-08T09:21:38.267Z,4.55
2023-03-08T09:22:38.269Z,4.48
2023-03-08T09:23:38.335Z,4.52
2023-03-08T09:24:38.246Z,4.50
2023-03-08T09:25:38.273Z,4.55
2023-03-08T09:26:38.270Z,4.50
2023-03-08T09:27:38.232Z,4.55
2023-03-08T09:28:38.198Z,4.52
2023-03-08T09:29:38.194Z,4.63
2023-03-08T09:30:38.203Z,4.66
2023-03-08T09:31:38.268Z,4.59
2023-03-08T09:32:38.306Z,4.69
2023-03-08T09:33:38.444Z,4.62
2023-03-08T09:34:38.144Z,4.80
2023-03-08T09:35:38.183Z,4.88
2023-03-08T09:36:38.126Z,4.75
2023-03-08T09:37:38.152Z,4.69
2023-03-08T09:38:38.121Z,4.69
2023-03-08T09:39:38.100Z,4.60
2023-03-08T09:40:38.062Z,4.51
2023-03-08T09:41:38.045Z,4.60
2023-03-08T09:42:38.045Z,4.63
2023-03-08T09:43:38.045Z,4.58
2023-03-08T09:44:38.026Z,4.58
2023-03-08T09:45:38.079Z,4.44
2023-03-08T09:46:38.018Z,4.44
2023-03-08T09:47:38.033Z,4.50
2023-03-08T09:48:38.000Z,4.41
2023-03-08T09:49:37.977Z,4.36
2023-03-08T09:50:37.959Z,4.16
2023-03-08T09:51:37.933Z,3.98
2023-03-08T09:52:37.944Z,3.88
2023-03-08T09:53:38.004Z,3.90
2023-03-08T09:54:37.903Z,3.86
2023-03-08T09:55:37.884Z,3.80
2023-03-08T09:56:37.899Z,3.80
2023-03-08T09:57:40.053Z,3.80
2023-03-08T09:58:37.852Z,3.86
2023-03-08T09:59:37.855Z,3.91
2023-03-08T10:00:37.916Z,3.84
2023-03-08T10:01:37.814Z,3.83
2023-03-08T10:02:37.868Z,3.78
2023-03-08T10:03:37.949Z,3.76
2023-03-08T10:04:37.839Z,3.72
2023-03-08T10:05:37.771Z,3.65
2023-03-08T10:06:37.760Z,3.66
2023-03-08T10:07:37.760Z,3.69
2023-03-08T10:08:37.776Z,3.65
2023-03-08T10:09:37.727Z,3.75
2023-03-08T10:10:37.715Z,3.65
2023-03-08T10:11:37.711Z,3.57
2023-03-08T10:12:37.690Z,3.68
2023-03-08T10:13:37.705Z,3.65
2023-03-08T10:14:37.706Z,3.70
2023-03-08T10:15:39.882Z,3.60
2023-03-08T10:16:37.726Z,3.60
2023-03-08T10:17:37.644Z,3.58
2023-03-08T10:18:37.646Z,3.61
2023-03-08T10:19:37.606Z,3.68
2023-03-08T10:20:37.631Z,3.65
2023-03-08T10:21:37.599Z,3.57
2023-03-08T10:22:37.580Z,3.58
2023-03-08T10:23:37.564Z,3.69
2023-03-08T10:24:37.560Z,3.58
2023-03-08T10:25:37.569Z,3.62
2023-03-08T10:26:37.544Z,3.62
2023-03-08T10:27:37.739Z,3.61
2023-03-08T10:28:37.535Z,3.69
2023-03-08T10:29:37.515Z,3.69
2023-03-08T10:30:37.525Z,3.57
2023-03-08T10:31:37.475Z,3.52
2023-03-08T10:32:37.581Z,3.58
2023-03-08T10:33:37.467Z,3.61
2023-03-08T10:34:37.478Z,3.73
2023-03-08T10:35:37.546Z,3.65
2023-03-08T10:36:37.425Z,3.60
2023-03-08T10:37:37.430Z,3.61
2023-03-08T10:38:37.424Z,3.60
2023-03-08T10:39:37.387Z,3.60
2023-03-08T10:40:37.399Z,3.65
2023-03-08T10:41:37.361Z,3.68
2023-03-08T10:42:46.141Z,3.60
2023-03-08T10:43:37.355Z,3.50
2023-03-08T10:44:37.343Z,3.48
2023-03-08T10:45:37.331Z,3.48
2023-03-08T10:46:37.377Z,3.51
2023-03-08T10:47:37.324Z,3.60
2023-03-08T10:48:37.332Z,3.58
2023-03-08T10:49:37.352Z,3.62
2023-03-08T10:50:37.426Z,3.68
2023-03-08T10:51:37.250Z,3.57
2023-03-08T10:52:37.273Z,3.65
2023-03-08T10:53:37.228Z,3.57
2023-03-08T10:54:37.225Z,3.62
2023-03-08T10:55:37.239Z,3.58
2023-03-08T10:56:44.953Z,3.58
2023-03-08T10:57:37.242Z,3.54
2023-03-08T10:58:37.202Z,3.58
2023-03-08T10:59:37.176Z,3.58
2023-03-08T11:00:37.175Z,3.50
2023-03-08T11:01:37.162Z,3.47
2023-03-08T11:02:37.151Z,3.52
2023-03-08T11:03:37.113Z,3.43
2023-03-08T11:04:37.129Z,3.47
2023-03-08T11:05:37.135Z,3.48
2023-03-08T11:06:37.163Z,3.43
2023-03-08T11:07:37.096Z,3.50
2023-03-08T11:08:37.080Z,3.57
2023-03-08T11:09:37.068Z,3.66
2023-03-08T11:10:37.096Z,3.57
2023-03-08T11:11:37.045Z,3.66
2023-03-08T11:12:37.047Z,3.72
2023-03-08T11:13:37.008Z,3.62
2023-03-08T11:14:37.019Z,3.61
2023-03-08T11:15:37.003Z,3.73
2023-03-08T11:16:37.000Z,3.69
2023-03-08T11:17:36.966Z,3.48
2023-03-08T11:18:37.029Z,3.33
2023-03-08T11:19:36.946Z,3.02
2023-03-08T11:20:36.927Z,2.85
2023-03-08T11:21:36.935Z,2.84
2023-03-08T11:22:36.961Z,2.87
2023-03-08T11:23:39.002Z,2.71
2023-03-08T11:24:37.016Z,2.52
2023-03-08T11:25:36.872Z,2.46
2023-03-08T11:26:37.000Z,2.39
2023-03-08T11:27:36.904Z,2.35
2023-03-08T11:28:36.878Z,2.28
2023-03-08T11:29:36.847Z,2.41
2023-03-08T11:30:36.832Z,2.45
2023-03-08T11:31:36.810Z,2.45
2023-03-08T11:32:36.909Z,2.56
2023-03-08T11:33:36.937Z,2.46
2023-03-08T11:34:36.780Z,2.49
2023-03-08T11:35:36.860Z,2.59
2023-03-08T11:36:36.772Z,2.61
2023-03-08T11:37:36.768Z,2.75
2023-03-08T11:38:36.750Z,2.82
2023-03-08T11:39:36.707Z,2.87
2023-03-08T11:40:36.708Z,2.85
2023-03-08T11:41:36.684Z,2.84
2023-03-08T11:42:36.709Z,2.64
2023-03-08T11:43:36.695Z,2.57
2023-03-08T11:44:36.699Z,2.60
2023-03-08T11:45:36.642Z,2.67
2023-03-08T11:46:36.673Z,2.72
2023-03-08T11:47:36.618Z,2.66
2023-03-08T11:48:36.665Z,2.74
2023-03-08T11:49:36.633Z,2.69
2023-03-08T11:50:36.594Z,2.63
2023-03-08T11:51:36.574Z,2.57
2023-03-08T11:52:36.596Z,2.56
2023-03-08T11:53:36.553Z,2.49
2023-03-08T11:54:36.597Z,2.52
2023-03-08T11:55:36.538Z,2.63
2023-03-08T11:56:36.523Z,2.71
2023-03-08T11:57:36.550Z,2.85
2023-03-08T11:58:36.495Z,2.96
2023-03-08T11:59:36.512Z,2.90
2023-03-08T12:00:36.469Z,2.81
2023-03-08T12:01:36.500Z,2.87
2023-03-08T12:02:36.449Z,2.85
2023-03-08T12:03:36.565Z,2.89
2023-03-08T12:04:36.543Z,2.85
2023-03-08T12:05:36.472Z,2.87
2023-03-08T12:06:36.553Z,2.71
2023-03-08T12:07:36.411Z,2.71
2023-03-08T12:08:36.405Z,2.75
2023-03-08T12:09:36.374Z,2.72
2023-03-08T12:10:36.409Z,2.74
2023-03-08T12:11:36.352Z,2.75
2023-03-08T12:12:36.354Z,2.85
2023-03-08T12:13:36.342Z,3.02
2023-03-08T12:14:36.320Z,3.00
2023-03-08T12:15:36.383Z,3.14
2023-03-08T12:16:36.476Z,3.29
2023-03-08T12:17:38.344Z,3.33
2023-03-08T12:18:36.266Z,3.50
2023-03-08T12:19:36.273Z,3.47
2023-03-08T12:20:36.248Z,3.62
2023-03-08T12:21:36.262Z,3.60
2023-03-08T12:22:36.238Z,3.58
2023-03-08T12:23:36.243Z,3.48
2023-03-08T12:24:36.221Z,3.48
2023-03-08T12:25:36.205Z,3.45
2023-03-08T12:26:36.284Z,3.31
2023-03-08T12:27:36.210Z,3.31
2023-03-08T12:28:36.150Z,3.40
2023-03-08T12:29:36.258Z,3.42
2023-03-08T12:30:36.148Z,3.45
2023-03-08T12:31:36.298Z,3.48
2023-03-08T12:32:36.267Z,3.50
2023-03-08T12:33:36.241Z,3.50
2023-03-08T12:34:36.096Z,3.54
2023-03-08T12:35:36.168Z,3.61
2023-03-08T12:36:36.187Z,3.58
2023-03-08T12:37:36.141Z,3.57
2023-03-08T12:38:36.052Z,3.61
2023-03-08T12:39:36.097Z,3.60
2023-03-08T12:40:36.125Z,3.69
2023-03-08T12:41:36.093Z,3.58
2023-03-08T12:42:36.093Z,3.70
2023-03-08T12:43:35.987Z,3.69
2023-03-08T12:44:35.973Z,3.62
2023-03-08T12:45:36.031Z,3.62
2023-03-08T12:46:35.958Z,3.60
2023-03-08T12:47:36.049Z,3.69
2023-03-08T12:48:36.085Z,3.57
2023-03-08T12:49:36.007Z,3.61
2023-03-08T12:50:35.965Z,3.48
2023-03-08T12:51:35.920Z,3.23
2023-03-08T12:52:35.965Z,3.29
2023-03-08T12:53:35.896Z,3.36
2023-03-08T12:54:35.860Z,3.43
2023-03-08T12:55:35.850Z,3.43
2023-03-08T12:56:35.841Z,3.69
2023-03-08T12:57:35.830Z,3.68
2023-03-08T12:58:35.863Z,3.60
2023-03-08T12:59:35.805Z,3.58
2023-03-08T13:00:35.792Z,3.65
2023-03-08T13:01:35.817Z,3.69
2023-03-08T13:02:35.804Z,3.69
2023-03-08T13:03:35.764Z,3.61
2023-03-08T13:04:43.266Z,3.60
2023-03-08T13:05:36.771Z,3.70
2023-03-08T13:06:35.732Z,3.75
2023-03-08T13:07:35.716Z,3.65
2023-03-08T13:08:35.700Z,3.61
2023-03-08T13:09:35.714Z,3.70
2023-03-08T13:10:35.690Z,3.50
2023-03-08T13:11:35.695Z,3.31
2023-03-08T13:12:35.651Z,3.11
2023-03-08T13:13:39.156Z,3.08
2023-03-08T13:14:35.674Z,3.11
2023-03-08T13:15:35.625Z,3.23
2023-03-08T13:16:35.754Z,3.08
2023-03-08T13:17:35.638Z,3.11
2023-03-08T13:18:35.632Z,2.97
2023-03-08T13:19:35.584Z,2.99
2023-03-08T13:20:35.585Z,2.87
2023-03-08T13:21:35.686Z,2.92
2023-03-08T13:22:35.650Z,3.02
2023-03-08T13:23:35.558Z,3.11
2023-03-08T13:24:35.519Z,3.18
2023-03-08T13:25:35.541Z,3.39
2023-03-08T13:26:49.425Z,3.65
2023-03-08T13:27:36.542Z,3.61
2023-03-08T13:28:46.713Z,3.73
2023-03-08T13:29:36.481Z,3.93
2023-03-08T13:30:35.588Z,3.96
2023-03-08T13:31:35.442Z,4.14
2023-03-08T13:32:35.495Z,4.12
2023-03-08T13:33:35.424Z,4.16
2023-03-08T13:34:35.431Z,3.94
2023-03-08T13:35:35.425Z,3.68
2023-03-08T13:36:35.442Z,3.65
2023-03-08T13:37:35.381Z,3.75
2023-03-08T13:38:35.359Z,3.69
2023-03-08T13:39:35.364Z,3.72
2023-03-08T13:40:35.349Z,3.79
2023-03-08T13:41:35.350Z,3.76
2023-03-08T13:42:35.313Z,3.91
2023-03-08T13:43:35.341Z,4.02
2023-03-08T13:44:35.284Z,3.88
2023-03-08T13:45:35.292Z,3.94
2023-03-08T13:46:35.305Z,3.86
2023-03-08T13:47:35.276Z,3.79
2023-03-08T13:48:35.298Z,3.79
2023-03-08T13:49:35.250Z,3.69
2023-03-08T13:50:35.224Z,3.76
2023-03-08T13:51:35.241Z,3.76
2023-03-08T13:52:35.211Z,3.76
2023-03-08T13:53:35.288Z,3.54
2023-03-08T13:54:35.251Z,3.54
2023-03-08T13:55:35.227Z,3.51
2023-03-08T13:56:35.167Z,3.47
2023-03-08T13:57:35.215Z,3.55
2023-03-08T13:58:35.262Z,3.58
2023-03-08T13:59:35.140Z,3.48
2023-03-08T14:00:35.141Z,3.58
2023-03-08T14:01:35.701Z,3.62
2023-03-08T14:02:35.161Z,3.57
2023-03-08T14:03:35.122Z,3.66
2023-03-08T14:04:35.217Z,3.62
2023-03-08T14:05:35.225Z,3.72
2023-03-08T14:06:35.113Z,3.78
2023-03-08T14:07:35.042Z,3.73
2023-03-08T14:08:35.070Z,3.76
2023-03-08T14:09:35.032Z,3.70
2023-03-08T14:10:35.015Z,3.75
2023-03-08T14:11:35.019Z,3.76
2023-03-08T14:12:34.989Z,3.75
2023-03-08T14:13:34.985Z,3.69
2023-03-08T14:14:35.003Z,3.72
2023-03-08T14:15:35.132Z,3.73
2023-03-08T14:16:34.948Z,3.79
2023-03-08T14:17:34.973Z,3.65
2023-03-08T14:18:35.071Z,3.60
2023-03-08T14:19:34.960Z,3.55
2023-03-08T14:20:34.895Z,3.55
2023-03-08T14:21:34.982Z,3.62
2023-03-08T14:22:39.542Z,3.58
2023-03-08T14:23:35.905Z,3.61
2023-03-08T14:24:34.871Z,3.68
2023-03-08T14:25:34.823Z,3.60
2023-03-08T14:26:34.888Z,3.65
2023-03-08T14:27:34.801Z,3.68
2023-03-08T14:28:34.850Z,3.58
2023-03-08T14:29:34.873Z,3.69
2023-03-08T14:30:34.761Z,3.62
2023-03-08T14:31:34.898Z,3.48
2023-03-08T14:32:34.758Z,3.43
2023-03-08T14:33:42.336Z,3.45
2023-03-08T14:34:35.753Z,3.43
2023-03-08T14:35:34.790Z,3.51
2023-03-08T14:36:34.688Z,3.48
2023-03-08T14:37:34.690Z,3.48
2023-03-08T14:38:36.581Z,3.48
2023-03-08T14:39:34.666Z,3.47
2023-03-08T14:40:34.656Z,3.47
2023-03-08T14:41:34.641Z,3.50
2023-03-08T14:42:34.620Z,3.50
2023-03-08T14:43:34.658Z,3.45
2023-03-08T14:44:34.602Z,3.47
2023-03-08T14:45:34.619Z,3.43
2023-03-08T14:46:34.592Z,3.43
2023-03-08T14:47:34.603Z,3.42
2023-03-08T14:48:34.591Z,3.40
2023-03-08T14:49:34.545Z,3.42
2023-03-08T14:50:34.548Z,3.43
2023-03-08T14:51:34.525Z,3.43
2023-03-08T14:52:34.548Z,3.45
2023-03-08T14:53:34.516Z,3.47
2023-03-08T14:54:34.485Z,3.32
2023-03-08T14:55:34.500Z,3.33
2023-03-08T14:56:34.454Z,3.29
2023-03-08T14:57:34.450Z,3.23
2023-03-08T14:58:34.490Z,3.17
2023-03-08T14:59:34.434Z,3.10
2023-03-08T15:00:34.409Z,3.08
2023-03-08T15:01:34.493Z,3.10
2023-03-08T15:02:34.390Z,3.10
2023-03-08T15:03:34.385Z,3.02
2023-03-08T15:04:34.493Z,2.97
2023-03-08T15:05:34.360Z,2.96
2023-03-08T15:06:34.366Z,2.85
2023-03-08T15:07:34.348Z,2.90
2023-03-08T15:08:34.326Z,2.87
2023-03-08T15:09:34.338Z,2.85
2023-03-08T15:10:34.310Z,2.93
2023-03-08T15:11:34.343Z,2.82
2023-03-08T15:12:34.275Z,2.87
2023-03-08T15:13:34.267Z,2.79
2023-03-08T15:14:34.295Z,2.81
2023-03-08T15:15:34.252Z,2.79
2023-03-08T15:16:34.339Z,2.75
2023-03-08T15:17:34.229Z,2.77
2023-03-08T15:18:34.232Z,2.71
2023-03-08T15:19:34.222Z,2.71
2023-03-08T15:20:34.209Z,2.82
2023-03-08T15:21:34.182Z,2.81
2023-03-08T15:22:34.201Z,2.71
2023-03-08T15:23:34.153Z,2.78
2023-03-08T15:24:34.136Z,2.81
2023-03-08T15:25:34.134Z,2.85
2023-03-08T15:26:34.111Z,2.81
2023-03-08T15:27:34.141Z,2.87
2023-03-08T15:28:35.063Z,2.87
2023-03-08T15:29:34.111Z,2.87
2023-03-08T15:30:34.065Z,2.90
2023-03-08T15:31:34.095Z,2.90
2023-03-08T15:32:34.134Z,2.92
2023-03-08T15:33:34.075Z,2.81
2023-03-08T15:34:34.060Z,2.89
2023-03-08T15:35:34.112Z,2.84
2023-03-08T15:36:34.017Z,2.90
2023-03-08T15:37:34.004Z,2.97
2023-03-08T15:38:34.148Z,2.96
2023-03-08T15:39:33.975Z,2.99
2023-03-08T15:40:33.968Z,2.92
2023-03-08T15:41:34.007Z,2.97
2023-03-08T15:42:33.934Z,2.96
2023-03-08T15:43:33.942Z,2.99
2023-03-08T15:44:33.903Z,2.93
2023-03-08T15:45:33.931Z,2.96
2023-03-08T15:46:33.907Z,2.95
2023-03-08T15:47:33.881Z,2.90
2023-03-08T15:48:33.858Z,2.95
2023-03-08T15:49:33.878Z,2.99
2023-03-08T15:50:33.844Z,2.90
2023-03-08T15:51:33.837Z,2.97
2023-03-08T15:52:33.830Z,2.89
2023-03-08T15:53:36.097Z,2.93
2023-03-08T15:54:33.832Z,3.00
2023-03-08T15:55:33.810Z,2.96
2023-03-08T15:56:33.789Z,2.90
2023-03-08T15:57:33.769Z,2.90
2023-03-08T15:58:33.760Z,2.97
2023-03-08T15:59:33.793Z,3.00
2023-03-08T16:00:33.723Z,2.97
2023-03-08T16:01:33.808Z,2.95
2023-03-08T16:02:33.707Z,2.96
2023-03-08T16:03:33.694Z,2.99
2023-03-08T16:04:33.745Z,2.97
2023-03-08T16:05:33.697Z,2.93
2023-03-08T16:06:33.671Z,3.02
2023-03-08T16:07:33.651Z,2.90
2023-03-08T16:08:33.638Z,2.92